createdAt,value
2023-05-04T00:00:02.912Z,497.00
2023-05-04T00:01:02.675Z,500.00
2023-05-04T00:02:02.664Z,498.00
2023-05-04T00:03:02.785Z,497.00
2023-05-04T00:04:02.875Z,496.00
2023-05-04T00:05:02.689Z,496.00
2023-05-04T00:06:02.673Z,495.00
2023-05-04T00:07:02.649Z,496.00
2023-05-04T00:08:02.666Z,499.00
2023-05-04T00:09:02.650Z,498.00
2023-05-04T00:10:02.923Z,499.00
2023-05-04T00:11:02.618Z,499.00
2023-05-04T00:12:02.592Z,499.00
2023-05-04T00:13:02.649Z,499.00
2023-05-04T00:14:02.614Z,499.00
2023-05-04T00:15:02.624Z,499.00
2023-05-04T00:16:02.649Z,498.00
2023-05-04T00:17:02.567Z,498.00
2023-05-04T00:18:02.662Z,496.00
2023-05-04T00:19:02.616Z,495.00
2023-05-04T00:20:02.832Z,496.00
2023-05-04T00:21:02.597Z,495.00
2023-05-04T00:22:02.585Z,494.00
2023-05-04T00:23:02.573Z,497.00
2023-05-04T00:24:02.585Z,495.00
2023-05-04T00:25:02.577Z,494.00
2023-05-04T00:26:02.613Z,496.00
2023-05-04T00:27:02.560Z,496.00
2023-05-04T00:28:02.583Z,496.00
2023-05-04T00:29:02.580Z,495.00
2023-05-04T00:30:02.965Z,496.00
2023-05-04T00:31:02.599Z,497.00
2023-05-04T00:32:02.652Z,498.00
2023-05-04T00:33:02.707Z,499.00
2023-05-04T00:34:02.599Z,499.00
2023-05-04T00:35:02.577Z,500.00
2023-05-04T00:36:02.654Z,500.00
2023-05-04T00:37:02.664Z,499.00
2023-05-04T00:38:02.727Z,499.00
2023-05-04T00:39:02.816Z,498.00
2023-05-04T00:40:03.295Z,495.00
2023-05-04T00:41:02.913Z,495.00
2023-05-04T00:42:02.985Z,495.00
2023-05-04T00:43:03.044Z,496.00
2023-05-04T00:44:03.096Z,496.00
2023-05-04T00:45:03.162Z,498.00
2023-05-04T00:46:03.214Z,498.00
2023-05-04T00:47:03.311Z,499.00
2023-05-04T00:48:03.338Z,499.00
2023-05-04T00:49:03.340Z,499.00
2023-05-04T00:50:03.579Z,504.00
2023-05-04T00:51:03.403Z,502.00
2023-05-04T00:52:03.501Z,501.00
2023-05-04T00:53:03.522Z,499.00
2023-05-04T00:54:03.515Z,499.00
2023-05-04T00:55:03.566Z,500.00
2023-05-04T00:56:03.639Z,501.00
2023-05-04T00:57:03.647Z,504.00
2023-05-04T00:58:03.668Z,506.00
2023-05-04T00:59:03.679Z,508.00
2023-05-04T01:00:03.843Z,506.00
2023-05-04T01:01:03.863Z,505.00
2023-05-04T01:02:03.809Z,503.00
2023-05-04T01:03:03.869Z,502.00
2023-05-04T01:04:03.917Z,502.00
2023-05-04T01:05:03.853Z,500.00
2023-05-04T01:06:03.890Z,499.00
2023-05-04T01:07:03.894Z,498.00
2023-05-04T01:08:03.945Z,499.00
2023-05-04T01:09:03.941Z,499.00
2023-05-04T01:10:04.230Z,499.00
2023-05-04T01:11:03.955Z,499.00
2023-05-04T01:12:03.971Z,499.00
2023-05-04T01:13:04.083Z,500.00
2023-05-04T01:14:04.019Z,500.00
2023-05-04T01:15:04.075Z,500.00
2023-05-04T01:16:04.086Z,501.00
2023-05-04T01:17:04.259Z,500.00
2023-05-04T01:18:04.170Z,499.00
2023-05-04T01:19:04.183Z,497.00
2023-05-04T01:20:04.461Z,496.00
2023-05-04T01:21:04.135Z,497.00
2023-05-04T01:22:04.164Z,498.00
2023-05-04T01:23:04.179Z,496.00
2023-05-04T01:24:04.179Z,497.00
2023-05-04T01:25:04.214Z,498.00
2023-05-04T01:26:04.184Z,496.00
2023-05-04T01:27:04.230Z,496.00
2023-05-04T01:28:04.247Z,494.00
2023-05-04T01:29:04.233Z,496.00
2023-05-04T01:30:04.474Z,496.00
2023-05-04T01:31:04.324Z,496.00
2023-05-04T01:32:04.322Z,496.00
2023-05-04T01:33:04.391Z,497.00
2023-05-04T01:34:04.302Z,500.00
2023-05-04T01:35:04.338Z,501.00
2023-05-04T01:36:04.320Z,501.00
2023-05-04T01:37:04.324Z,500.00
2023-05-04T01:38:04.313Z,500.00
2023-05-04T01:39:04.342Z,501.00
2023-05-04T01:40:04.549Z,502.00
2023-05-04T01:41:04.334Z,500.00
2023-05-04T01:42:04.339Z,499.00
2023-05-04T01:43:04.353Z,497.00
2023-05-04T01:44:04.381Z,497.00
2023-05-04T01:45:04.418Z,495.00
2023-05-04T01:46:04.414Z,494.00
2023-05-04T01:47:04.411Z,493.00
2023-05-04T01:48:04.471Z,495.00
2023-05-04T01:49:04.417Z,496.00
2023-05-04T01:50:04.579Z,496.00
2023-05-04T01:51:04.417Z,495.00
2023-05-04T01:52:04.422Z,493.00
2023-05-04T01:53:04.442Z,495.00
2023-05-04T01:54:04.490Z,495.00
2023-05-04T01:55:04.465Z,498.00
2023-05-04T01:56:04.534Z,499.00
2023-05-04T01:57:04.467Z,500.00
2023-05-04T01:58:04.484Z,500.00
2023-05-04T01:59:04.468Z,500.00
2023-05-04T02:00:04.711Z,501.00
2023-05-04T02:01:04.469Z,498.00
2023-05-04T02:02:04.573Z,497.00
2023-05-04T02:03:04.550Z,498.00
2023-05-04T02:04:04.555Z,498.00
2023-05-04T02:05:04.495Z,498.00
2023-05-04T02:06:04.483Z,500.00
2023-05-04T02:07:04.485Z,499.00
2023-05-04T02:08:04.478Z,498.00
2023-05-04T02:09:04.480Z,498.00
2023-05-04T02:10:04.703Z,497.00
2023-05-04T02:11:04.483Z,498.00
2023-05-04T02:12:04.483Z,498.00
2023-05-04T02:13:04.519Z,498.00
2023-05-04T02:14:04.463Z,498.00
2023-05-04T02:15:04.510Z,498.00
2023-05-04T02:16:04.577Z,498.00
2023-05-04T02:17:04.515Z,501.00
2023-05-04T02:18:04.504Z,502.00
2023-05-04T02:19:04.493Z,503.00
2023-05-04T02:20:05.058Z,504.00
2023-05-04T02:21:04.484Z,501.00
2023-05-04T02:22:04.449Z,502.00
2023-05-04T02:23:04.481Z,502.00
2023-05-04T02:24:04.448Z,502.00
2023-05-04T02:25:04.457Z,501.00
2023-05-04T02:26:04.473Z,502.00
2023-05-04T02:27:04.462Z,502.00
2023-05-04T02:28:04.458Z,503.00
2023-05-04T02:29:04.454Z,503.00
2023-05-04T02:30:04.614Z,505.00
2023-05-04T02:31:04.423Z,505.00
2023-05-04T02:32:04.453Z,507.00
2023-05-04T02:33:04.482Z,508.00
2023-05-04T02:34:04.421Z,510.00
2023-05-04T02:35:04.408Z,510.00
2023-05-04T02:36:04.419Z,510.00
2023-05-04T02:37:06.594Z,510.00
2023-05-04T02:38:04.404Z,509.00
2023-05-04T02:39:04.408Z,509.00
2023-05-04T02:40:04.479Z,509.00
2023-05-04T02:41:04.393Z,509.00
2023-05-04T02:42:04.353Z,506.00
2023-05-04T02:43:04.379Z,508.00
2023-05-04T02:44:04.408Z,507.00
2023-05-04T02:45:04.386Z,505.00
2023-05-04T02:46:04.360Z,507.00
2023-05-04T02:47:04.335Z,508.00
2023-05-04T02:48:04.405Z,506.00
2023-05-04T02:49:04.348Z,508.00
2023-05-04T02:50:04.595Z,509.00
2023-05-04T02:51:04.316Z,511.00
2023-05-04T02:52:04.319Z,509.00
2023-05-04T02:53:04.311Z,510.00
2023-05-04T02:54:04.301Z,509.00
2023-05-04T02:55:04.284Z,509.00
2023-05-04T02:56:04.274Z,511.00
2023-05-04T02:57:04.262Z,511.00
2023-05-04T02:58:04.280Z,511.00
2023-05-04T02:59:04.263Z,512.00
2023-05-04T03:00:04.456Z,514.00
2023-05-04T03:01:04.378Z,513.00
2023-05-04T03:02:04.274Z,513.00
2023-05-04T03:03:04.288Z,514.00
2023-05-04T03:04:04.290Z,514.00
2023-05-04T03:05:04.218Z,516.00
2023-05-04T03:06:04.198Z,519.00
2023-05-04T03:07:04.226Z,517.00
2023-05-04T03:08:04.200Z,518.00
2023-05-04T03:09:04.231Z,516.00
2023-05-04T03:10:04.525Z,515.00
2023-05-04T03:11:04.168Z,513.00
2023-05-04T03:12:04.173Z,513.00
2023-05-04T03:13:04.289Z,514.00
2023-05-04T03:14:04.198Z,512.00
2023-05-04T03:15:04.140Z,512.00
2023-05-04T03:16:04.204Z,511.00
2023-05-04T03:17:04.157Z,513.00
2023-05-04T03:18:04.167Z,513.00
2023-05-04T03:19:04.149Z,512.00
2023-05-04T03:20:04.328Z,512.00
2023-05-04T03:21:04.137Z,513.00
2023-05-04T03:22:04.147Z,514.00
2023-05-04T03:23:04.094Z,516.00
2023-05-04T03:24:04.115Z,515.00
2023-05-04T03:25:04.117Z,516.00
2023-05-04T03:26:04.095Z,517.00
2023-05-04T03:27:04.063Z,517.00
2023-05-04T03:28:04.066Z,516.00
2023-05-04T03:29:04.050Z,515.00
2023-05-04T03:30:04.233Z,513.00
2023-05-04T03:31:04.054Z,513.00
2023-05-04T03:32:04.123Z,514.00
2023-05-04T03:33:04.077Z,514.00
2023-05-04T03:34:04.044Z,515.00
2023-05-04T03:35:04.198Z,518.00
2023-05-04T03:36:04.043Z,517.00
2023-05-04T03:37:03.988Z,519.00
2023-05-04T03:38:04.016Z,518.00
2023-05-04T03:39:04.025Z,518.00
2023-05-04T03:40:04.113Z,516.00
2023-05-04T03:41:03.965Z,517.00
2023-05-04T03:42:04.771Z,516.00
2023-05-04T03:43:03.961Z,519.00
2023-05-04T03:44:03.943Z,520.00
2023-05-04T03:45:04.518Z,522.00
2023-05-04T03:46:04.068Z,522.00
2023-05-04T03:47:03.924Z,522.00
2023-05-04T03:48:04.004Z,524.00
2023-05-04T03:49:04.010Z,524.00
2023-05-04T03:50:04.065Z,524.00
2023-05-04T03:51:03.955Z,523.00
2023-05-04T03:52:03.898Z,522.00
2023-05-04T03:53:03.890Z,524.00
2023-05-04T03:54:03.868Z,524.00
2023-05-04T03:55:03.928Z,524.00
2023-05-04T03:56:03.994Z,525.00
2023-05-04T03:57:04.024Z,525.00
2023-05-04T03:58:04.080Z,523.00
2023-05-04T03:59:04.131Z,523.00
2023-05-04T04:00:04.406Z,522.00
2023-05-04T04:01:04.231Z,521.00
2023-05-04T04:02:04.281Z,521.00
2023-05-04T04:03:04.387Z,523.00
2023-05-04T04:04:04.485Z,524.00
2023-05-04T04:05:04.416Z,523.00
2023-05-04T04:06:04.481Z,521.00
2023-05-04T04:07:04.525Z,520.00
2023-05-04T04:08:04.587Z,519.00
2023-05-04T04:09:04.640Z,518.00
2023-05-04T04:10:05.005Z,518.00
2023-05-04T04:11:04.732Z,519.00
2023-05-04T04:12:04.824Z,518.00
2023-05-04T04:13:04.861Z,520.00
2023-05-04T04:14:04.887Z,522.00
2023-05-04T04:15:04.950Z,520.00
2023-05-04T04:16:05.017Z,521.00
2023-05-04T04:17:05.028Z,520.00
2023-05-04T04:18:05.148Z,521.00
2023-05-04T04:19:05.130Z,522.00
2023-05-04T04:20:05.457Z,521.00
2023-05-04T04:21:05.158Z,521.00
2023-05-04T04:22:05.208Z,519.00
2023-05-04T04:23:05.267Z,518.00
2023-05-04T04:24:05.305Z,520.00
2023-05-04T04:25:05.306Z,521.00
2023-05-04T04:26:05.343Z,521.00
2023-05-04T04:27:05.414Z,519.00
2023-05-04T04:28:05.444Z,520.00
2023-05-04T04:29:05.427Z,524.00
2023-05-04T04:30:05.665Z,526.00
2023-05-04T04:31:05.610Z,528.00
2023-05-04T04:32:05.563Z,527.00
2023-05-04T04:33:05.600Z,526.00
2023-05-04T04:34:05.570Z,523.00
2023-05-04T04:35:05.635Z,522.00
2023-05-04T04:36:05.644Z,522.00
2023-05-04T04:37:05.742Z,524.00
2023-05-04T04:38:05.642Z,523.00
2023-05-04T04:39:05.654Z,521.00
2023-05-04T04:40:05.888Z,521.00
2023-05-04T04:41:05.651Z,521.00
2023-05-04T04:42:05.705Z,521.00
2023-05-04T04:43:05.695Z,523.00
2023-05-04T04:44:05.695Z,522.00
2023-05-04T04:45:05.701Z,523.00
2023-05-04T04:46:05.704Z,526.00
2023-05-04T04:47:05.835Z,524.00
2023-05-04T04:48:05.803Z,522.00
2023-05-04T04:49:05.709Z,522.00
2023-05-04T04:50:06.115Z,522.00
2023-05-04T04:51:05.728Z,524.00
2023-05-04T04:52:05.742Z,525.00
2023-05-04T04:53:05.758Z,526.00
2023-05-04T04:54:05.708Z,525.00
2023-05-04T04:55:05.717Z,527.00
2023-05-04T04:56:05.710Z,527.00
2023-05-04T04:57:05.698Z,528.00
2023-05-04T04:58:06.361Z,528.00
2023-05-04T04:59:05.729Z,527.00
2023-05-04T05:00:06.049Z,527.00
2023-05-04T05:02:24.690Z,521.00
2023-05-04T05:03:24.617Z,522.00
2023-05-04T05:04:24.635Z,521.00
2023-05-04T05:05:24.597Z,521.00
2023-05-04T05:06:24.590Z,523.00
2023-05-04T05:07:24.580Z,523.00
2023-05-04T05:08:24.579Z,524.00
2023-05-04T05:09:24.573Z,524.00
2023-05-04T05:10:24.563Z,525.00
2023-05-04T05:11:24.602Z,527.00
2023-05-04T05:12:24.539Z,526.00
2023-05-04T05:13:24.562Z,526.00
2023-05-04T05:14:24.573Z,526.00
2023-05-04T05:15:24.658Z,524.00
2023-05-04T05:16:24.587Z,525.00
2023-05-04T05:17:24.666Z,524.00
2023-05-04T05:18:24.487Z,525.00
2023-05-04T05:19:24.588Z,525.00
2023-05-04T05:20:24.509Z,525.00
2023-05-04T05:21:24.462Z,527.00
2023-05-04T05:22:24.487Z,528.00
2023-05-04T05:23:24.480Z,525.00
2023-05-04T05:24:24.479Z,524.00
2023-05-04T05:25:24.481Z,521.00
2023-05-04T05:26:24.485Z,518.00
2023-05-04T05:27:24.474Z,516.00
2023-05-04T05:28:24.453Z,508.00
2023-05-04T05:29:24.450Z,504.00
2023-05-04T05:30:24.848Z,503.00
2023-05-04T05:31:24.573Z,504.00
2023-05-04T05:32:24.441Z,502.00
2023-05-04T05:33:24.380Z,516.00
2023-05-04T05:34:24.397Z,520.00
2023-05-04T05:35:24.847Z,528.00
2023-05-04T05:36:24.373Z,547.00
2023-05-04T05:37:24.374Z,572.00
2023-05-04T05:38:24.370Z,585.00
2023-05-04T05:39:24.377Z,582.00
2023-05-04T05:40:24.874Z,601.00
2023-05-04T05:41:24.343Z,837.00
2023-05-04T05:42:24.374Z,651.00
2023-05-04T05:43:24.351Z,671.00
2023-05-04T05:44:24.329Z,637.00
2023-05-04T05:45:31.441Z,605.00
2023-05-04T05:46:24.322Z,629.00
2023-05-04T05:47:24.358Z,612.00
2023-05-04T05:48:24.310Z,663.00
2023-05-04T05:49:24.298Z,663.00
2023-05-04T05:50:24.296Z,679.00
2023-05-04T05:51:24.296Z,693.00
2023-05-04T05:52:24.251Z,706.00
2023-05-04T05:53:24.301Z,713.00
2023-05-04T05:54:24.272Z,717.00
2023-05-04T05:55:24.281Z,730.00
2023-05-04T05:56:24.270Z,744.00
2023-05-04T05:57:24.252Z,749.00
2023-05-04T05:58:24.340Z,751.00
2023-05-04T05:59:24.223Z,746.00
2023-05-04T06:00:24.274Z,744.00
2023-05-04T06:01:24.385Z,798.00
2023-05-04T06:02:24.286Z,791.00
2023-05-04T06:03:24.281Z,797.00
2023-05-04T06:04:24.216Z,842.00
2023-05-04T06:05:24.179Z,891.00
2023-05-04T06:06:24.181Z,911.00
2023-05-04T06:07:24.144Z,925.00
2023-05-04T06:08:24.173Z,940.00
2023-05-04T06:09:24.777Z,969.00
2023-05-04T06:10:24.184Z,996.00
2023-05-04T06:11:24.165Z,1024.00
2023-05-04T06:12:24.133Z,1032.00
2023-05-04T06:13:24.087Z,1044.00
2023-05-04T06:14:24.144Z,1056.00
2023-05-04T06:15:24.114Z,1068.00
2023-05-04T06:16:24.120Z,1089.00
2023-05-04T06:17:24.299Z,1103.00
2023-05-04T06:18:24.077Z,1122.00
2023-05-04T06:19:24.130Z,1135.00
2023-05-04T06:20:24.110Z,1156.00
2023-05-04T06:21:24.199Z,1165.00
2023-05-04T06:22:24.204Z,1176.00
2023-05-04T06:24:33.843Z,1235.00
2023-05-04T06:25:33.780Z,1246.00
2023-05-04T06:26:33.789Z,1254.00
2023-05-04T06:27:33.826Z,1255.00
2023-05-04T06:28:33.804Z,1260.00
2023-05-04T06:29:33.769Z,1261.00
2023-05-04T06:30:33.722Z,1268.00
2023-05-04T06:31:33.810Z,1282.00
2023-05-04T06:32:33.798Z,1299.00
2023-05-04T06:33:33.747Z,1313.00
2023-05-04T06:34:33.754Z,1327.00
2023-05-04T06:35:33.710Z,1344.00
2023-05-04T06:36:33.686Z,1360.00
2023-05-04T06:37:33.717Z,1369.00
2023-05-04T06:38:35.707Z,1383.00
2023-05-04T06:39:33.671Z,1463.00
2023-05-04T06:40:33.674Z,1360.00
2023-05-04T06:41:33.990Z,1236.00
2023-05-04T06:42:33.666Z,1225.00
2023-05-04T06:43:33.633Z,1321.00
2023-05-04T06:44:33.676Z,1318.00
2023-05-04T06:45:33.665Z,1327.00
2023-05-04T06:46:33.611Z,1336.00
2023-05-04T06:47:33.664Z,1346.00
2023-05-04T06:48:33.591Z,1351.00
2023-05-04T06:49:33.612Z,1364.00
2023-05-04T06:50:33.610Z,1368.00
2023-05-04T06:51:33.576Z,1268.00
2023-05-04T06:52:33.591Z,1269.00
2023-05-04T06:53:33.561Z,1326.00
2023-05-04T06:54:33.704Z,1317.00
2023-05-04T06:55:33.540Z,1309.00
2023-05-04T06:56:33.988Z,1318.00
2023-05-04T06:57:33.559Z,1330.00
2023-05-04T06:58:33.664Z,1341.00
2023-05-04T06:59:33.580Z,1351.00
2023-05-04T07:00:33.511Z,1360.00
2023-05-04T07:01:33.566Z,1369.00
2023-05-04T07:02:33.580Z,1376.00
2023-05-04T07:03:33.530Z,1380.00
2023-05-04T07:04:33.501Z,1382.00
2023-05-04T07:05:33.475Z,1381.00
2023-05-04T07:06:33.511Z,1385.00
2023-05-04T07:07:33.462Z,1390.00
2023-05-04T07:08:33.464Z,1394.00
2023-05-04T07:09:33.481Z,1402.00
2023-05-04T07:10:33.440Z,1406.00
2023-05-04T07:11:33.465Z,1431.00
2023-05-04T07:12:33.476Z,1444.00
2023-05-04T07:13:33.422Z,1454.00
2023-05-04T07:14:33.833Z,1463.00
2023-05-04T07:15:33.580Z,1468.00
2023-05-04T07:16:34.032Z,1455.00
2023-05-04T07:17:33.603Z,1438.00
2023-05-04T07:18:33.607Z,986.00
2023-05-04T07:19:33.604Z,1159.00
2023-05-04T07:20:33.649Z,846.00
2023-05-04T07:21:33.668Z,801.00
2023-05-04T07:22:33.732Z,885.00
2023-05-04T07:23:33.762Z,1010.00
2023-05-04T07:24:33.853Z,1127.00
2023-05-04T07:25:34.536Z,1156.00
2023-05-04T07:26:33.899Z,1139.00
2023-05-04T07:27:33.951Z,1149.00
2023-05-04T07:28:33.970Z,1158.00
2023-05-04T07:29:33.911Z,1168.00
2023-05-04T07:30:34.200Z,1175.00
2023-05-04T07:31:34.028Z,1179.00
2023-05-04T07:32:33.928Z,1185.00
2023-05-04T07:33:33.937Z,1056.00
2023-05-04T07:34:44.997Z,933.00
2023-05-04T07:35:34.999Z,912.00
2023-05-04T07:36:33.967Z,715.00
2023-05-04T07:37:33.968Z,671.00
2023-05-04T07:38:33.992Z,664.00
2023-05-04T07:39:33.908Z,600.00
2023-05-04T07:40:33.959Z,601.00
2023-05-04T07:41:33.952Z,599.00
2023-05-04T07:42:33.937Z,616.00
2023-05-04T07:43:33.933Z,631.00
2023-05-04T07:44:33.937Z,636.00
2023-05-04T07:45:33.875Z,639.00
2023-05-04T07:46:34.170Z,645.00
2023-05-04T07:47:33.935Z,648.00
2023-05-04T07:48:33.880Z,658.00
2023-05-04T07:49:33.921Z,657.00
2023-05-04T07:50:34.194Z,659.00
2023-05-04T07:51:34.056Z,664.00
2023-05-04T07:52:34.548Z,670.00
2023-05-04T07:53:34.146Z,674.00
2023-05-04T07:54:34.179Z,677.00
2023-05-04T07:55:34.205Z,677.00
2023-05-04T07:56:34.183Z,673.00
2023-05-04T07:57:34.278Z,673.00
2023-05-04T07:58:34.240Z,670.00
2023-05-04T07:59:34.257Z,667.00
2023-05-04T08:00:34.232Z,662.00
2023-05-04T08:01:34.353Z,660.00
2023-05-04T08:02:34.379Z,658.00
2023-05-04T08:03:34.276Z,657.00
2023-05-04T08:04:34.277Z,655.00
2023-05-04T08:05:34.365Z,650.00
2023-05-04T08:06:34.363Z,645.00
2023-05-04T08:07:34.453Z,639.00
2023-05-04T08:08:34.475Z,630.00
2023-05-04T08:09:34.518Z,627.00
2023-05-04T08:10:34.605Z,624.00
2023-05-04T08:11:34.754Z,620.00
2023-05-04T08:12:34.763Z,621.00
2023-05-04T08:13:34.793Z,619.00
2023-05-04T08:14:36.828Z,615.00
2023-05-04T08:15:34.860Z,615.00
2023-05-04T08:16:34.821Z,613.00
2023-05-04T08:17:34.873Z,613.00
2023-05-04T08:18:34.798Z,614.00
2023-05-04T08:19:34.792Z,614.00
2023-05-04T08:20:34.781Z,615.00
2023-05-04T08:21:34.778Z,610.00
2023-05-04T08:22:34.777Z,608.00
2023-05-04T08:23:34.766Z,608.00
2023-05-04T08:24:34.764Z,607.00
2023-05-04T08:25:34.740Z,603.00
2023-05-04T08:26:34.733Z,599.00
2023-05-04T08:27:35.017Z,595.00
2023-05-04T08:28:34.727Z,588.00
2023-05-04T08:29:34.763Z,586.00
2023-05-04T08:30:34.717Z,585.00
2023-05-04T08:31:34.735Z,587.00
2023-05-04T08:32:35.074Z,583.00
2023-05-04T08:33:34.715Z,580.00
2023-05-04T08:34:34.824Z,578.00
2023-05-04T08:35:34.688Z,578.00
2023-05-04T08:36:34.711Z,576.00
2023-05-04T08:37:34.747Z,689.00
2023-05-04T08:38:34.673Z,683.00
2023-05-04T08:39:34.685Z,610.00
2023-05-04T08:40:34.680Z,596.00
2023-05-04T08:41:34.619Z,590.00
2023-05-04T08:42:34.654Z,587.00
2023-05-04T08:43:34.635Z,584.00
2023-05-04T08:44:34.624Z,591.00
2023-05-04T08:45:34.656Z,604.00
2023-05-04T08:46:34.615Z,609.00
2023-05-04T08:47:34.651Z,610.00
2023-05-04T08:48:34.604Z,613.00
2023-05-04T08:49:34.558Z,615.00
2023-05-04T08:50:34.596Z,614.00
2023-05-04T08:51:34.650Z,610.00
2023-05-04T08:52:34.660Z,601.00
2023-05-04T08:53:34.772Z,589.00
2023-05-04T08:54:34.768Z,586.00
2023-05-04T08:55:34.788Z,616.00
2023-05-04T08:56:34.748Z,668.00
2023-05-04T08:57:35.050Z,658.00
2023-05-04T08:58:34.755Z,651.00
2023-05-04T08:59:34.805Z,668.00
2023-05-04T09:00:34.915Z,723.00
2023-05-04T09:01:35.656Z,728.00
2023-05-04T09:02:35.171Z,743.00
2023-05-04T09:03:35.104Z,770.00
2023-05-04T09:04:35.058Z,784.00
2023-05-04T09:05:35.077Z,798.00
2023-05-04T09:06:35.137Z,806.00
2023-05-04T09:07:35.120Z,831.00
2023-05-04T09:08:35.187Z,850.00
2023-05-04T09:09:35.184Z,747.00
2023-05-04T09:10:35.283Z,725.00
2023-05-04T09:11:35.299Z,710.00
2023-05-04T09:12:35.549Z,701.00
2023-05-04T09:13:35.425Z,700.00
2023-05-04T09:14:35.477Z,702.00
2023-05-04T09:15:35.540Z,703.00
2023-05-04T09:16:35.633Z,703.00
2023-05-04T09:17:42.034Z,708.00
2023-05-04T09:18:36.654Z,707.00
2023-05-04T09:19:35.615Z,686.00
2023-05-04T09:20:35.687Z,668.00
2023-05-04T09:21:35.716Z,668.00
2023-05-04T09:22:35.761Z,668.00
2023-05-04T09:23:35.797Z,678.00
2023-05-04T09:24:35.771Z,687.00
2023-05-04T09:25:35.766Z,684.00
2023-05-04T09:26:35.832Z,685.00
2023-05-04T09:27:35.833Z,685.00
2023-05-04T09:28:35.934Z,691.00
2023-05-04T09:29:35.935Z,699.00
2023-05-04T09:30:35.998Z,714.00
2023-05-04T09:31:36.145Z,727.00
2023-05-04T09:32:36.172Z,747.00
2023-05-04T09:33:36.195Z,765.00
2023-05-04T09:34:36.282Z,775.00
2023-05-04T09:35:36.315Z,773.00
2023-05-04T09:36:36.399Z,776.00
2023-05-04T09:37:36.568Z,783.00
2023-05-04T09:38:36.586Z,787.00
2023-05-04T09:39:36.563Z,786.00
2023-05-04T09:40:36.623Z,783.00
2023-05-04T09:41:36.651Z,787.00
2023-05-04T09:42:36.750Z,777.00
2023-05-04T09:43:36.734Z,599.00
2023-05-04T09:44:36.770Z,604.00
2023-05-04T09:45:36.799Z,658.00
2023-05-04T09:46:37.045Z,665.00
2023-05-04T09:47:37.228Z,669.00
2023-05-04T09:48:37.043Z,677.00
2023-05-04T09:49:36.840Z,687.00
2023-05-04T09:50:36.828Z,695.00
2023-05-04T09:51:36.847Z,636.00
2023-05-04T09:52:36.966Z,600.00
2023-05-04T09:53:36.918Z,594.00
2023-05-04T09:54:36.966Z,595.00
2023-05-04T09:55:37.048Z,588.00
2023-05-04T09:56:37.066Z,576.00
2023-05-04T09:57:37.109Z,567.00
2023-05-04T09:58:37.151Z,558.00
2023-05-04T09:59:37.154Z,564.00
2023-05-04T10:00:37.241Z,580.00
2023-05-04T10:01:37.285Z,611.00
2023-05-04T10:02:37.404Z,620.00
2023-05-04T10:03:37.603Z,629.00
2023-05-04T10:04:37.230Z,636.00
2023-05-04T10:05:37.256Z,643.00
2023-05-04T10:06:37.669Z,594.00
2023-05-04T10:07:37.784Z,589.00
2023-05-04T10:08:37.707Z,586.00
2023-05-04T10:09:37.360Z,588.00
2023-05-04T10:10:37.306Z,582.00
2023-05-04T10:11:37.358Z,575.00
2023-05-04T10:12:37.398Z,572.00
2023-05-04T10:13:37.694Z,578.00
2023-05-04T10:14:37.369Z,608.00
2023-05-04T10:15:37.378Z,603.00
2023-05-04T10:16:37.654Z,593.00
2023-05-04T10:17:37.457Z,598.00
2023-05-04T10:18:37.400Z,602.00
2023-05-04T10:19:37.447Z,601.00
2023-05-04T10:20:38.007Z,591.00
2023-05-04T10:21:37.769Z,590.00
2023-05-04T10:22:37.491Z,596.00
2023-05-04T10:23:37.446Z,602.00
2023-05-04T10:24:37.430Z,604.00
2023-05-04T10:25:37.450Z,598.00
2023-05-04T10:26:37.434Z,591.00
2023-05-04T10:27:37.471Z,589.00
2023-05-04T10:28:37.586Z,588.00
2023-05-04T10:29:37.481Z,594.00
2023-05-04T10:30:37.461Z,590.00
2023-05-04T10:31:37.517Z,581.00
2023-05-04T10:32:37.559Z,572.00
2023-05-04T10:33:37.552Z,562.00
2023-05-04T10:34:37.588Z,541.00
2023-05-04T10:35:37.594Z,565.00
2023-05-04T10:36:37.642Z,626.00
2023-05-04T10:37:37.689Z,659.00
2023-05-04T10:38:38.099Z,695.00
2023-05-04T10:39:37.688Z,781.00
2023-05-04T10:40:37.666Z,658.00
2023-05-04T10:41:37.688Z,587.00
2023-05-04T10:42:37.709Z,577.00
2023-05-04T10:43:38.073Z,570.00
2023-05-04T10:44:37.760Z,569.00
2023-05-04T10:45:37.869Z,572.00
2023-05-04T10:46:37.779Z,578.00
2023-05-04T10:47:37.833Z,584.00
2023-05-04T10:48:37.753Z,630.00
2023-05-04T10:49:37.763Z,649.00
2023-05-04T10:50:37.768Z,652.00
2023-05-04T10:51:48.733Z,648.00
2023-05-04T10:52:38.762Z,588.00
2023-05-04T10:53:37.780Z,567.00
2023-05-04T10:54:37.753Z,570.00
2023-05-04T10:55:37.737Z,574.00
2023-05-04T10:56:37.739Z,580.00
2023-05-04T10:57:37.727Z,573.00
2023-05-04T10:58:37.745Z,574.00
2023-05-04T10:59:37.711Z,581.00
2023-05-04T11:00:37.692Z,581.00
2023-05-04T11:01:37.983Z,569.00
2023-05-04T11:02:37.788Z,559.00
2023-05-04T11:03:37.945Z,540.00
2023-05-04T11:04:37.704Z,532.00
2023-05-04T11:05:37.713Z,530.00
2023-05-04T11:06:37.708Z,529.00
2023-05-04T11:07:37.995Z,524.00
2023-05-04T11:08:38.129Z,523.00
2023-05-04T11:09:37.978Z,526.00
2023-05-04T11:10:37.975Z,525.00
2023-05-04T11:11:37.993Z,522.00
2023-05-04T11:12:38.201Z,521.00
2023-05-04T11:13:38.610Z,516.00
2023-05-04T11:14:38.262Z,517.00
2023-05-04T11:15:38.259Z,516.00
2023-05-04T11:16:38.349Z,513.00
2023-05-04T11:17:38.383Z,513.00
2023-05-04T11:18:38.619Z,512.00
2023-05-04T11:19:38.474Z,511.00
2023-05-04T11:20:38.541Z,505.00
2023-05-04T11:21:38.603Z,503.00
2023-05-04T11:22:38.724Z,505.00
2023-05-04T11:23:38.748Z,506.00
2023-05-04T11:24:38.793Z,505.00
2023-05-04T11:25:38.824Z,505.00
2023-05-04T11:26:38.901Z,506.00
2023-05-04T11:27:38.945Z,502.00
2023-05-04T11:28:39.151Z,501.00
2023-05-04T11:29:39.062Z,502.00
2023-05-04T11:30:39.106Z,502.00
2023-05-04T11:31:39.182Z,504.00
2023-05-04T11:32:39.256Z,514.00
2023-05-04T11:33:39.629Z,521.00
2023-05-04T11:34:39.592Z,528.00
2023-05-04T11:35:39.386Z,530.00
2023-05-04T11:36:39.430Z,533.00
2023-05-04T11:37:39.490Z,533.00
2023-05-04T11:38:39.556Z,533.00
2023-05-04T11:39:39.565Z,530.00
2023-05-04T11:40:39.631Z,528.00
2023-05-04T11:41:39.643Z,526.00
2023-05-04T11:42:39.704Z,525.00
2023-05-04T11:43:39.766Z,526.00
2023-05-04T11:44:39.778Z,525.00
2023-05-04T11:45:39.859Z,524.00
2023-05-04T11:46:39.958Z,521.00
2023-05-04T11:47:39.969Z,519.00
2023-05-04T11:48:39.998Z,517.00
2023-05-04T11:49:40.036Z,514.00
2023-05-04T11:50:40.075Z,510.00
2023-05-04T11:51:40.109Z,508.00
2023-05-04T11:52:40.138Z,507.00
2023-05-04T11:53:40.198Z,507.00
2023-05-04T11:54:40.230Z,505.00
2023-05-04T11:55:40.299Z,504.00
2023-05-04T11:56:40.324Z,501.00
2023-05-04T11:57:40.338Z,498.00
2023-05-04T11:58:40.382Z,496.00
2023-05-04T11:59:40.481Z,494.00
2023-05-04T12:00:40.632Z,492.00
2023-05-04T12:01:40.518Z,493.00
2023-05-04T12:02:40.662Z,493.00
2023-05-04T12:03:53.222Z,494.00
2023-05-04T12:04:41.621Z,493.00
2023-05-04T12:05:40.603Z,493.00
2023-05-04T12:06:40.566Z,493.00
2023-05-04T12:07:40.634Z,492.00
2023-05-04T12:08:40.584Z,492.00
2023-05-04T12:09:40.580Z,494.00
2023-05-04T12:10:40.564Z,495.00
2023-05-04T12:11:40.553Z,493.00
2023-05-04T12:12:40.616Z,493.00
2023-05-04T12:13:40.532Z,491.00
2023-05-04T12:14:40.573Z,491.00
2023-05-04T12:15:40.504Z,490.00
2023-05-04T12:16:40.600Z,488.00
2023-05-04T12:17:40.552Z,487.00
2023-05-04T12:18:40.652Z,488.00
2023-05-04T12:19:40.599Z,485.00
2023-05-04T12:20:40.635Z,482.00
2023-05-04T12:21:40.679Z,479.00
2023-05-04T12:22:40.713Z,479.00
2023-05-04T12:23:40.757Z,481.00
2023-05-04T12:24:40.762Z,484.00
2023-05-04T12:25:51.069Z,484.00
2023-05-04T12:26:41.808Z,485.00
2023-05-04T12:27:40.831Z,485.00
2023-05-04T12:28:40.797Z,484.00